Time;durP1;ratioP1;P1;durP2;ratioP2;P2;SDS_P1;SDS_P2;PMS_P1;PMS_P2;Temp;Humidity;BMP_temperature;BMP_pressure;BME280_temperature;BME280_humidity;BME280_pressure;Samples;Min_cycle;Max_cycle;Signal;HPM_P1;HPM_P2
2022/06/09 00:00:38;;;;;;;11.00;3.70;;;12.20;99.90;;;;;;4983730;28;20065;-60
2022/06/09 00:03:16;;;;;;;8.90;3.50;;;12.20;99.90;;;;;;4985330;28;20455;-61
2022/06/09 00:05:48;;;;;;;13.23;5.90;;;12.20;99.90;;;;;;4985148;28;20845;-61
2022/06/09 00:08:19;;;;;;;13.70;5.15;;;12.20;99.90;;;;;;5003896;28;20514;-62
2022/06/09 00:10:54;;;;;;;16.63;5.93;;;12.20;99.90;;;;;;5008887;28;20050;-61
2022/06/09 00:13:20;;;;;;;16.20;6.18;;;12.30;99.90;;;;;;5023563;28;20069;-62
2022/06/09 00:15:46;;;;;;;15.07;9.23;;;12.30;99.90;;;;;;5003740;28;20046;-62
2022/06/09 00:18:17;;;;;;;;;;;12.30;99.90;;;;;;4994964;28;20097;-61
2022/06/09 00:20:43;;;;;;;15.18;8.48;;;12.30;99.90;;;;;;4990550;28;19922;-61
2022/06/09 00:23:16;;;;;;;17.67;8.40;;;12.40;99.90;;;;;;4991210;28;20125;-62
2022/06/09 00:25:43;;;;;;;19.23;8.75;;;12.30;99.90;;;;;;4990508;28;20046;-61
2022/06/09 00:28:09;;;;;;;19.55;9.18;;;12.40;99.90;;;;;;4991002;28;20657;-61
2022/06/09 00:30:35;;;;;;;;;;;12.40;99.90;;;;;;4992764;28;20512;-61
2022/06/09 00:33:04;;;;;;;25.90;11.20;;;12.40;99.90;;;;;;5010548;28;19917;-61
2022/06/09 00:35:30;;;;;;;19.20;10.38;;;12.40;99.90;;;;;;5010022;28;20054;-61
2022/06/09 00:37:56;;;;;;;;;;;12.40;99.90;;;;;;5009704;28;20042;-61
2022/06/09 00:40:22;;;;;;;19.98;11.98;;;12.40;99.90;;;;;;5006697;28;20664;-61
2022/06/09 00:42:51;;;;;;;23.48;10.95;;;12.40;99.90;;;;;;5010236;28;20074;-61
2022/06/09 00:45:31;;;;;;;;;;;12.30;99.90;;;;;;5009889;28;20541;-61
2022/06/09 00:48:16;;;;;;;24.52;10.55;;;12.30;99.90;;;;;;5009838;28;20020;-61
2022/06/09 00:50:49;;;;;;;21.23;9.88;;;12.40;99.90;;;;;;5009220;28;20149;-62
2022/06/09 00:53:21;;;;;;;18.35;11.15;;;12.40;99.90;;;;;;5009973;28;20132;-60
2022/06/09 00:55:54;;;;;;;19.83;9.00;;;12.40;99.90;;;;;;5010100;28;20144;-61
2022/06/09 00:58:24;;;;;;;20.98;8.93;;;12.50;99.90;;;;;;5010755;28;20569;-61
2022/06/09 01:01:07;;;;;;;24.60;11.00;;;12.50;99.90;;;;;;5008798;28;20073;-61
2022/06/09 01:03:54;;;;;;;19.45;10.35;;;12.50;99.90;;;;;;5007819;28;20037;-61
2022/06/09 01:06:23;;;;;;;20.95;9.00;;;12.40;99.90;;;;;;5007648;28;20128;-59
2022/06/09 01:08:58;;;;;;;14.15;8.20;;;12.50;99.90;;;;;;5009154;28;20041;-61
2022/06/09 01:11:32;;;;;;;18.77;8.65;;;12.50;99.90;;;;;;5009429;28;20065;-61
2022/06/09 01:13:59;;;;;;;14.38;7.75;;;12.50;99.90;;;;;;5009915;28;20409;-60
2022/06/09 01:16:55;;;;;;;14.38;8.18;;;12.60;99.90;;;;;;5007529;28;20052;-61
2022/06/09 01:19:24;;;;;;;20.30;9.35;;;12.60;99.90;;;;;;5006147;28;20041;-61
2022/06/09 01:21:55;;;;;;;14.07;8.15;;;12.60;99.90;;;;;;5009183;28;20038;-61
2022/06/09 01:24:43;;;;;;;14.57;7.95;;;12.60;99.90;;;;;;5009869;28;20105;-61
2022/06/09 01:27:42;;;;;;;12.55;7.78;;;12.70;99.90;;;;;;4996582;28;20858;-60
2022/06/09 01:30:19;;;;;;;12.68;8.38;;;12.70;99.90;;;;;;5008262;28;20108;-61
2022/06/09 01:33:16;;;;;;;13.57;7.28;;;12.70;99.90;;;;;;5008138;28;20136;-61
2022/06/09 01:35:51;;;;;;;13.38;7.18;;;12.60;99.90;;;;;;5007703;28;20073;-60
2022/06/09 01:38:21;;;;;;;18.67;6.82;;;12.70;99.90;;;;;;5007606;28;20122;-60
2022/06/09 01:40:46;;;;;;;14.23;7.55;;;12.70;99.90;;;;;;5008087;28;20393;-61
2022/06/09 01:43:12;;;;;;;;;;;12.70;99.90;;;;;;5008513;28;20042;-61
2022/06/09 01:46:06;;;;;;;12.30;7.85;;;12.70;99.90;;;;;;5008802;28;19926;-56
2022/06/09 01:48:34;;;;;;;20.42;8.15;;;12.60;99.90;;;;;;5024401;28;20605;-59
2022/06/09 01:51:11;;;;;;;19.30;9.52;;;12.70;99.90;;;;;;5008846;28;20046;-55
2022/06/09 01:53:57;;;;;;;22.02;7.78;;;12.60;99.90;;;;;;5009515;28;20052;-59
2022/06/09 01:56:48;;;;;;;13.27;7.45;;;12.60;99.90;;;;;;5009010;28;20155;-61
2022/06/09 01:59:17;;;;;;;17.30;8.77;;;12.60;99.90;;;;;;5002947;28;20054;-60
2022/06/09 02:02:13;;;;;;;12.65;7.75;;;12.60;99.90;;;;;;5007671;28;20514;-60
2022/06/09 02:04:47;;;;;;;14.82;8.27;;;12.60;99.90;;;;;;5001141;28;20057;-60
2022/06/09 02:07:20;;;;;;;17.23;8.90;;;12.50;99.90;;;;;;5008706;28;20049;-61
2022/06/09 02:09:56;;;;;;;24.48;8.40;;;12.50;99.90;;;;;;5008883;28;20049;-61
2022/06/09 02:12:27;;;;;;;13.02;7.05;;;12.60;99.90;;;;;;5009400;28;20125;-60
2022/06/09 02:14:58;;;;;;;15.23;9.05;;;12.60;99.90;;;;;;5009323;28;20049;-60
2022/06/09 02:17:26;;;;;;;13.82;7.32;;;12.60;99.90;;;;;;5008551;28;20050;-61
2022/06/09 02:19:57;;;;;;;16.20;10.52;;;12.60;99.90;;;;;;5008675;28;20034;-60
2022/06/09 02:22:28;;;;;;;21.08;8.90;;;12.60;99.90;;;;;;5006837;28;20041;-62
2022/06/09 02:24:56;;;;;;;22.13;9.35;;;12.60;99.90;;;;;;5008209;28;20045;-63
2022/06/09 02:27:22;;;;;;;25.98;9.55;;;12.60;99.90;;;;;;5023219;28;20042;-62
2022/06/09 02:29:48;;;;;;;;;;;12.60;99.90;;;;;;5007138;28;20080;-62
2022/06/09 02:32:15;;;;;;;20.85;11.52;;;12.60;99.90;;;;;;5007687;28;19924;-62
2022/06/09 02:34:44;;;;;;;19.73;8.90;;;12.60;99.90;;;;;;5008466;28;20053;-62
2022/06/09 02:37:10;;;;;;;;;;;12.60;99.90;;;;;;5009137;28;20046;-63
2022/06/09 02:39:38;;;;;;;14.93;9.45;;;12.70;99.90;;;;;;5008234;28;20058;-64
2022/06/09 02:42:08;;;;;;;16.92;10.23;;;12.70;99.90;;;;;;5023044;28;20088;-62
2022/06/09 02:44:37;;;;;;;19.83;9.52;;;12.70;99.90;;;;;;5006493;28;20042;-63
2022/06/09 02:47:10;;;;;;;19.45;10.48;;;12.70;99.90;;;;;;5007913;28;20552;-61
2022/06/09 02:49:46;;;;;;;22.45;11.38;;;12.70;99.90;;;;;;5008586;28;20042;-63
2022/06/09 02:52:23;;;;;;;27.45;10.10;;;12.70;99.90;;;;;;5008277;28;20050;-61
2022/06/09 02:54:54;;;;;;;23.25;12.98;;;12.70;99.90;;;;;;5008134;28;20077;-63
2022/06/09 02:57:21;;;;;;;22.40;12.68;;;12.70;99.90;;;;;;5008209;28;20096;-63
2022/06/09 02:59:46;;;;;;;20.85;11.40;;;12.60;99.90;;;;;;5008040;28;20042;-62
2022/06/09 03:02:12;;;;;;;;;;;12.70;99.90;;;;;;5007615;28;20053;-64
2022/06/09 03:04:37;;;;;;;18.27;11.10;;;12.70;99.90;;;;;;5008347;28;19917;-64
2022/06/09 03:07:03;;;;;;;18.77;11.90;;;12.70;99.90;;;;;;5007603;28;20409;-62
2022/06/09 03:09:29;;;;;;;;;;;12.70;99.90;;;;;;5008455;28;20034;-62
2022/06/09 03:11:54;;;;;;;23.52;14.55;;;12.70;99.90;;;;;;5007265;28;20330;-64
2022/06/09 03:14:20;;;;;;;;;;;12.70;99.90;;;;;;5006614;28;20096;-64
2022/06/09 03:16:45;;;;;;;27.80;14.30;;;12.60;99.90;;;;;;5007501;28;19924;-64
2022/06/09 03:19:11;;;;;;;;;;;12.60;99.90;;;;;;5007786;28;20034;-64
2022/06/09 03:21:37;;;;;;;22.90;12.35;;;12.60;99.90;;;;;;5007379;28;20719;-63
2022/06/09 03:24:02;;;;;;;;;;;12.60;99.90;;;;;;5007818;28;20037;-64
2022/06/09 03:26:28;;;;;;;21.10;11.88;;;12.60;99.90;;;;;;5006994;28;19921;-64
2022/06/09 03:28:54;;;;;;;;;;;12.70;99.90;;;;;;5008017;28;20038;-63
2022/06/09 03:31:20;;;;;;;21.75;11.30;;;12.70;99.90;;;;;;5006661;28;20301;-62
2022/06/09 03:33:46;;;;;;;;;;;12.70;99.90;;;;;;5008327;28;20049;-63
2022/06/09 03:36:11;;;;;;;23.00;12.20;;;12.70;99.90;;;;;;5007710;28;19917;-63
2022/06/09 03:38:40;;;;;;;;;;;12.70;99.90;;;;;;5008516;28;20046;-62
2022/06/09 03:41:07;;;;;;;20.88;12.65;;;12.70;99.90;;;;;;5007264;28;19917;-64
2022/06/09 03:43:34;;;;;;;21.00;11.88;;;12.70;99.90;;;;;;5007396;28;20046;-66
2022/06/09 03:46:00;;;;;;;18.67;10.95;;;12.70;99.90;;;;;;5007068;28;20054;-60
2022/06/09 03:48:27;;;;;;;;;;;12.70;99.90;;;;;;5006294;28;20044;-63
2022/06/09 03:50:52;;;;;;;24.42;12.77;;;12.80;99.90;;;;;;5007104;28;19921;-63
2022/06/09 03:53:18;;;;;;;;;;;12.70;99.90;;;;;;5009479;28;20478;-63
2022/06/09 03:55:43;;;;;;;21.55;10.82;;;12.70;99.90;;;;;;5010278;28;19964;-63
2022/06/09 03:58:09;;;;;;;;;;;12.70;99.90;;;;;;5011612;28;20088;-64
2022/06/09 04:00:35;;;;;;;20.35;11.00;;;12.70;99.90;;;;;;5009341;28;20090;-63
2022/06/09 04:03:00;;;;;;;;;;;12.70;99.90;;;;;;5010163;28;20053;-65
2022/06/09 04:05:26;;;;;;;14.02;10.05;;;12.70;99.90;;;;;;4992349;28;19956;-64
2022/06/09 04:07:52;;;;;;;20.35;9.50;;;12.70;99.90;;;;;;5003277;28;20068;-64
2022/06/09 04:10:22;;;;;;;22.23;9.50;;;12.70;99.90;;;;;;5003307;28;20145;-64
2022/06/09 04:12:48;;;;;;;18.45;10.63;;;12.70;99.90;;;;;;5000248;28;20038;-63
2022/06/09 04:15:15;;;;;;;;;;;12.70;99.90;;;;;;4994489;28;20383;-63
2022/06/09 04:17:43;;;;;;;14.73;8.68;;;12.70;99.90;;;;;;4999263;28;20005;-64
2022/06/09 04:20:09;;;;;;;17.15;9.00;;;12.90;99.90;;;;;;5009874;28;20148;-64
2022/06/09 04:22:34;;;;;;;22.63;10.00;;;13.00;99.90;;;;;;5010412;28;20056;-64
2022/06/09 04:25:00;;;;;;;;;;;13.20;99.90;;;;;;5010682;28;20041;-67
2022/06/09 04:27:25;;;;;;;18.00;8.63;;;13.30;99.90;;;;;;5010463;28;20325;-62
2022/06/09 04:29:51;;;;;;;;;;;13.50;99.90;;;;;;5010337;28;20038;-65
2022/06/09 04:32:17;;;;;;;16.35;6.53;;;14.00;99.90;;;;;;5008962;28;20449;-63
2022/06/09 04:34:42;;;;;;;;;;;14.60;99.90;;;;;;5006735;28;20033;-64
2022/06/09 04:37:08;;;;;;;11.30;5.85;;;14.70;99.90;;;;;;5009150;28;19922;-64
2022/06/09 04:39:34;;;;;;;10.38;5.55;;;14.80;99.90;;;;;;5006170;28;20120;-63
2022/06/09 04:42:00;;;;;;;;;;;14.70;99.90;;;;;;5024628;28;20126;-63
2022/06/09 04:44:25;;;;;;;13.05;7.18;;;14.60;99.90;;;;;;5009747;28;19929;-63
2022/06/09 04:46:51;;;;;;;13.05;6.25;;;14.30;99.90;;;;;;5008420;28;21202;-64
2022/06/09 04:49:17;;;;;;;;;;;14.30;99.90;;;;;;5008392;28;20045;-63
2022/06/09 04:51:42;;;;;;;10.27;6.78;;;14.10;99.90;;;;;;5008797;28;19940;-64
2022/06/09 04:54:08;;;;;;;;;;;13.90;99.90;;;;;;5003368;28;20037;-64
2022/06/09 04:56:33;;;;;;;17.20;8.90;;;13.90;99.90;;;;;;5001427;28;19971;-64
2022/06/09 04:58:59;;;;;;;;;;;13.60;99.90;;;;;;5007771;28;20038;-61
2022/06/09 05:01:29;;;;;;;19.80;8.70;;;13.60;99.90;;;;;;5005721;28;19922;-61
2022/06/09 05:03:56;;;;;;;13.82;8.18;;;13.40;99.90;;;;;;5009715;28;20097;-62
2022/06/09 05:06:23;;;;;;;16.48;8.15;;;13.40;99.90;;;;;;5009190;28;20042;-61
2022/06/09 05:08:50;;;;;;;14.55;8.30;;;13.30;99.90;;;;;;5009702;28;20402;-64
2022/06/09 05:11:16;;;;;;;16.30;7.68;;;13.40;99.90;;;;;;5014297;28;20042;-63
2022/06/09 05:13:42;;;;;;;;;;;13.50;99.90;;;;;;5009777;28;20116;-64
2022/06/09 05:16:09;;;;;;;17.35;8.20;;;13.40;99.90;;;;;;5008405;28;20352;-64
2022/06/09 05:18:36;;;;;;;22.95;10.32;;;13.30;99.90;;;;;;5008172;28;20034;-63
2022/06/09 05:21:01;;;;;;;15.68;8.68;;;13.20;99.90;;;;;;5007275;28;20100;-63
2022/06/09 05:23:27;;;;;;;;;;;13.20;99.90;;;;;;5009360;28;20073;-62
2022/06/09 05:25:55;;;;;;;18.08;9.07;;;13.10;99.90;;;;;;5008832;28;19925;-63
2022/06/09 05:28:22;;;;;;;16.40;8.93;;;13.10;99.90;;;;;;5007979;28;20038;-64
2022/06/09 05:30:48;;;;;;;20.40;10.57;;;13.20;99.90;;;;;;4994805;28;20045;-64
2022/06/09 05:33:13;;;;;;;;;;;13.00;99.90;;;;;;5007680;28;20050;-62
2022/06/09 05:35:39;;;;;;;13.93;8.23;;;13.00;99.90;;;;;;5008653;28;19960;-63
2022/06/09 05:46:18;;;;;;;17.40;10.90;;;13.50;99.90;;;;;;4988893;28;20074;-62
2022/06/09 05:48:45;;;;;;;;;;;13.30;99.90;;;;;;5007086;28;20084;-62
2022/06/09 05:51:12;;;;;;;20.63;10.60;;;13.40;99.90;;;;;;5007948;28;19929;-62
2022/06/09 05:53:38;;;;;;;20.40;9.85;;;13.50;99.90;;;;;;5008161;28;20038;-63
2022/06/09 05:56:05;;;;;;;;;;;13.60;99.90;;;;;;5008762;28;20430;-63
2022/06/09 05:58:30;;;;;;;15.30;9.15;;;13.80;99.90;;;;;;5008738;28;19917;-63
2022/06/09 06:00:56;;;;;;;;;;;13.90;99.90;;;;;;5007894;28;20142;-64
2022/06/09 06:03:22;;;;;;;20.42;9.23;;;13.80;99.90;;;;;;5006527;28;19927;-65
2022/06/09 06:08:32;;;;;;;14.75;8.48;;;13.90;99.90;;;;;;4996632;28;19917;-63
2022/06/09 06:10:58;;;;;;;13.38;8.75;;;13.80;99.90;;;;;;5007007;28;20064;-62
2022/06/09 06:13:23;;;;;;;;;;;13.70;99.90;;;;;;5006620;28;20422;-62
2022/06/09 06:15:49;;;;;;;24.58;9.98;;;13.60;99.90;;;;;;5006315;28;19921;-63
2022/06/09 06:18:15;;;;;;;;;;;13.50;99.90;;;;;;5006711;28;20046;-64
2022/06/09 06:20:41;;;;;;;18.88;9.90;;;13.50;99.90;;;;;;5002313;28;19925;-61
2022/06/09 06:23:06;;;;;;;15.15;8.18;;;13.40;99.90;;;;;;4997289;28;20088;-63
2022/06/09 06:25:32;;;;;;;;;;;13.40;99.90;;;;;;4999859;28;20041;-61
2022/06/09 06:27:58;;;;;;;14.60;7.18;;;13.50;99.90;;;;;;5000830;28;19921;-62
2022/06/09 06:30:24;;;;;;;13.75;7.05;;;13.50;99.90;;;;;;5003839;28;20038;-63
2022/06/09 06:32:50;;;;;;;;;;;13.60;99.90;;;;;;5000034;28;20042;-63
2022/06/09 06:35:16;;;;;;;16.20;8.13;;;13.60;99.90;;;;;;5001972;28;19921;-63
2022/06/09 06:37:42;;;;;;;16.48;8.40;;;13.60;99.90;;;;;;4998923;28;20092;-63
2022/06/09 06:40:11;;;;;;;;;;;13.50;99.90;;;;;;5008369;28;20038;-63
2022/06/09 06:42:37;;;;;;;13.50;7.90;;;13.50;99.90;;;;;;5007167;28;19972;-63
2022/06/09 06:45:03;;;;;;;;;;;13.50;99.90;;;;;;5004214;28;20034;-63
2022/06/09 06:47:28;;;;;;;11.30;6.37;;;13.60;99.90;;;;;;5001251;28;19928;-62
2022/06/09 06:49:55;;;;;;;;;;;13.50;99.90;;;;;;5007062;28;20038;-63
2022/06/09 06:52:22;;;;;;;12.80;7.20;;;13.60;99.90;;;;;;5007423;28;19917;-62
2022/06/09 06:54:47;;;;;;;13.60;7.93;;;13.60;99.90;;;;;;5005239;28;20037;-62
2022/06/09 06:57:13;;;;;;;;;;;13.60;99.90;;;;;;5006191;28;20460;-61
2022/06/09 06:59:38;;;;;;;13.75;7.85;;;13.60;99.90;;;;;;4998155;28;20020;-61
2022/06/09 07:02:04;;;;;;;;;;;13.60;99.90;;;;;;5005212;28;20030;-62
2022/06/09 07:04:30;;;;;;;22.17;9.35;;;13.60;99.90;;;;;;5004376;28;20349;-62
2022/06/09 07:06:56;;;;;;;;;;;13.60;99.90;;;;;;4994840;28;20505;-62
2022/06/09 07:09:22;;;;;;;12.25;7.43;;;13.80;99.90;;;;;;5007534;28;19921;-61
2022/06/09 07:11:48;;;;;;;;;;;14.00;99.90;;;;;;5007516;28;20034;-63
2022/06/09 07:14:13;;;;;;;12.32;6.82;;;14.40;99.90;;;;;;4999157;28;19932;-63
2022/06/09 07:16:39;;;;;;;12.55;7.18;;;14.70;99.90;;;;;;5007160;28;20141;-63
2022/06/09 07:19:05;;;;;;;;;;;14.60;99.90;;;;;;5007779;28;20065;-63
2022/06/09 07:21:31;;;;;;;13.52;7.28;;;14.80;99.90;;;;;;5007599;28;19944;-63
2022/06/09 07:23:57;;;;;;;12.25;6.18;;;14.80;99.90;;;;;;5007598;28;20050;-61
2022/06/09 07:26:22;;;;;;;12.25;6.25;;;14.70;99.90;;;;;;5005569;28;20581;-62
2022/06/09 07:28:48;;;;;;;;;;;14.60;99.90;;;;;;5010544;28;20057;-62
2022/06/09 07:31:13;;;;;;;11.77;5.93;;;14.50;99.90;;;;;;5010413;28;20294;-63
2022/06/09 07:33:40;;;;;;;;;;;14.60;99.90;;;;;;5003773;28;20042;-63
2022/06/09 07:36:13;;;;;;;8.50;5.90;;;14.50;99.90;;;;;;5011538;28;19918;-63
2022/06/09 07:38:40;;;;;;;14.45;7.55;;;14.40;99.90;;;;;;5011532;28;20054;-61
2022/06/09 07:41:06;;;;;;;9.82;6.07;;;14.40;99.90;;;;;;5008792;28;20045;-63
2022/06/09 07:43:32;;;;;;;12.52;6.75;;;14.40;99.90;;;;;;5009335;28;20091;-62
2022/06/09 07:45:58;;;;;;;;;;;14.40;99.90;;;;;;5011292;28;20133;-62
2022/06/09 07:48:23;;;;;;;17.73;6.68;;;14.40;99.90;;;;;;5010386;28;19918;-62
2022/06/09 07:50:50;;;;;;;;;;;14.60;99.90;;;;;;5011111;28;20511;-63
2022/06/09 07:53:17;;;;;;;13.77;7.25;;;14.60;99.90;;;;;;5011165;28;19928;-61
2022/06/09 07:55:43;;;;;;;10.10;6.30;;;14.60;99.90;;;;;;5011273;28;20069;-61
2022/06/09 07:58:09;;;;;;;14.45;7.10;;;14.50;99.90;;;;;;5002959;28;20073;-61
2022/06/09 08:00:34;;;;;;;;;;;14.70;99.90;;;;;;5010538;28;20541;-61
2022/06/09 08:03:03;;;;;;;10.82;7.28;;;14.70;99.90;;;;;;5010597;28;19928;-61
2022/06/09 08:05:29;;;;;;;12.82;6.97;;;15.00;99.90;;;;;;5010117;28;20049;-61
2022/06/09 08:07:55;;;;;;;14.32;7.63;;;15.00;99.90;;;;;;5010277;28;20046;-61
2022/06/09 08:10:23;;;;;;;;;;;14.80;99.90;;;;;;5011132;28;20034;-61
2022/06/09 08:12:52;;;;;;;21.88;8.48;;;14.50;99.90;;;;;;5010016;28;19924;-61
2022/06/09 08:15:19;;;;;;;12.57;6.82;;;14.40;99.90;;;;;;5010491;28;20056;-60
2022/06/09 08:17:44;;;;;;;12.60;6.43;;;14.30;99.90;;;;;;5009649;28;20066;-61
2022/06/09 08:20:11;;;;;;;;;;;14.30;99.90;;;;;;5010474;28;20075;-61
2022/06/09 08:22:40;;;;;;;12.77;7.75;;;15.00;99.90;;;;;;5010306;28;19921;-61
2022/06/09 08:25:08;;;;;;;15.35;7.38;;;15.00;99.90;;;;;;5010722;28;20053;-61
2022/06/09 08:27:35;;;;;;;20.77;8.32;;;14.90;99.90;;;;;;5010099;28;20046;-60
2022/06/09 08:30:00;;;;;;;14.43;8.82;;;14.90;99.90;;;;;;5009978;28;20629;-61
2022/06/09 08:32:26;;;;;;;;;;;14.80;99.90;;;;;;5011147;28;20046;-62
2022/06/09 08:34:52;;;;;;;13.45;7.03;;;15.00;99.90;;;;;;4991590;22;19926;-61
2022/06/09 08:37:19;;;;;;;11.75;6.45;;;15.00;99.90;;;;;;4940915;28;20122;-61
2022/06/09 08:39:45;;;;;;;12.63;7.68;;;15.00;99.90;;;;;;4932182;23;20073;-62
2022/06/09 08:42:39;;;;;;;11.82;7.85;;;15.10;99.90;;;;;;4931526;29;20031;-59
2022/06/09 08:45:16;;;;;;;11.98;5.85;;;16.30;99.90;;;;;;4926980;29;20046;-59
2022/06/09 08:47:47;;;;;;;13.80;7.40;;;16.90;99.90;;;;;;4932497;29;20036;-62
2022/06/09 08:50:22;;;;;;;11.90;7.22;;;16.90;99.90;;;;;;4931684;28;20044;-62
2022/06/09 08:53:01;;;;;;;9.07;6.13;;;16.80;99.90;;;;;;4925755;29;20098;-62
2022/06/09 08:55:45;;;;;;;14.05;6.15;;;16.40;99.90;;;;;;4950898;28;20075;-62
2022/06/09 08:58:25;;;;;;;12.18;7.63;;;16.20;99.90;;;;;;4951077;28;20519;-61
2022/06/09 09:01:06;;;;;;;16.80;6.90;;;15.70;99.90;;;;;;4946225;28;20036;-60
2022/06/09 09:03:40;;;;;;;15.73;7.88;;;15.40;99.90;;;;;;4920667;29;20172;-62
2022/06/09 09:06:16;;;;;;;9.43;5.57;;;15.00;99.90;;;;;;4911656;29;20718;-62
2022/06/09 09:08:42;;;;;;;;;;;15.00;99.90;;;;;;4906666;29;20040;-63
2022/06/09 09:11:36;;;;;;;14.23;6.80;;;15.10;99.90;;;;;;4912255;29;20521;-61
2022/06/09 09:14:07;;;;;;;15.82;6.07;;;15.20;99.90;;;;;;4900891;29;20139;-63
2022/06/09 09:16:35;;;;;;;12.95;6.55;;;15.30;99.90;;;;;;4909906;29;20048;-62
2022/06/09 09:19:22;;;;;;;12.60;7.50;;;15.10;99.90;;;;;;4910102;29;20036;-63
2022/06/09 09:21:59;;;;;;;12.95;6.90;;;15.30;99.90;;;;;;4903562;29;20050;-62
2022/06/09 09:24:25;;;;;;;12.52;7.15;;;15.30;99.90;;;;;;4923491;29;20468;-62
2022/06/09 09:27:01;;;;;;;;;;;15.40;99.90;;;;;;4911054;29;20040;-62
2022/06/09 09:29:47;;;;;;;12.95;6.28;;;15.60;99.90;;;;;;4911973;29;19927;-62
2022/06/09 09:32:23;;;;;;;18.48;6.75;;;15.70;99.90;;;;;;4911022;29;20118;-62
2022/06/09 09:34:50;;;;;;;104.55;10.43;;;15.70;99.90;;;;;;4928791;29;20587;-62
2022/06/09 09:37:36;;;;;;;15.43;5.82;;;16.00;99.90;;;;;;4917679;29;20055;-63
2022/06/09 09:40:17;;;;;;;12.02;5.70;;;16.10;99.90;;;;;;4913603;29;20036;-62
2022/06/09 09:42:44;;;;;;;15.27;5.95;;;16.10;99.90;;;;;;4912050;29;20044;-62
2022/06/09 09:45:10;;;;;;;8.93;4.95;;;16.20;99.90;;;;;;4911937;29;20425;-63
2022/06/09 09:47:45;;;;;;;;;;;16.40;99.90;;;;;;4911609;29;20044;-63
2022/06/09 09:50:32;;;;;;;13.10;6.00;;;16.60;99.90;;;;;;4910497;29;19922;-63
2022/06/09 09:53:36;;;;;;;10.43;4.93;;;16.40;99.90;;;;;;4912679;29;20429;-62
2022/06/09 09:56:17;;;;;;;22.63;5.10;;;16.10;99.90;;;;;;4903226;29;20055;-62
2022/06/09 09:58:49;;;;;;;12.45;5.43;;;16.20;99.90;;;;;;4912193;29;20107;-62
2022/06/09 10:01:14;;;;;;;11.57;5.60;;;16.40;99.90;;;;;;4911245;29;20035;-62
2022/06/09 10:09:46;;;;;;;9.60;5.30;;;16.20;99.90;;;;;;4909930;29;20048;-61
2022/06/09 10:12:23;;;;;;;9.02;4.93;;;16.60;99.90;;;;;;4907038;29;20092;-61
2022/06/09 10:15:11;;;;;;;14.93;6.03;;;16.50;99.90;;;;;;4905740;29;20040;-61
2022/06/09 10:17:55;;;;;;;16.65;5.82;;;16.40;99.90;;;;;;4908688;29;20044;-62
2022/06/09 10:20:29;;;;;;;11.80;5.57;;;16.30;99.90;;;;;;4909862;29;20047;-62
2022/06/09 10:23:18;;;;;;;15.90;6.68;;;16.40;99.90;;;;;;4909095;29;20492;-65
2022/06/09 10:26:02;;;;;;;10.48;5.40;;;16.50;99.90;;;;;;4910138;29;20489;-64
2022/06/09 10:29:05;;;;;;;10.50;5.50;;;16.70;99.90;;;;;;4910846;29;20048;-63
2022/06/09 10:32:02;;;;;;;12.98;6.10;;;17.10;99.90;;;;;;4892167;29;20569;-64
2022/06/09 10:34:52;;;;;;;13.98;5.13;;;17.20;99.90;;;;;;4904216;29;20044;-64
2022/06/09 10:37:25;;;;;;;10.25;5.25;;;17.30;99.90;;;;;;4930160;29;20835;-63
2022/06/09 10:40:04;;;;;;;12.95;5.70;;;17.30;99.90;;;;;;4922450;29;20055;-63
2022/06/09 10:42:34;;;;;;;12.82;6.47;;;17.20;99.90;;;;;;4910467;29;20048;-63
2022/06/09 10:45:17;;;;;;;9.57;5.45;;;17.20;99.90;;;;;;4911078;29;20043;-64
2022/06/09 10:57:16;;;;;;;10.43;5.47;;;17.20;99.90;;;;;;4892384;29;20060;-63
2022/06/09 11:00:00;;;;;;;9.10;4.28;;;17.00;99.90;;;;;;4900846;29;20075;-63
2022/06/09 11:02:30;;;;;;;6.43;3.25;;;16.60;99.90;;;;;;4928326;29;20132;-63
2022/06/09 11:04:57;;;;;;;7.43;3.55;;;16.70;99.90;;;;;;4923875;29;20050;-63
2022/06/09 11:07:38;;;;;;;6.28;3.50;;;16.80;99.90;;;;;;4914294;29;20930;-63
2022/06/09 11:10:17;;;;;;;9.02;4.65;;;16.90;99.90;;;;;;4910278;29;20513;-63
2022/06/09 11:12:57;;;;;;;5.72;3.63;;;17.10;99.90;;;;;;4910247;29;20036;-63
2022/06/09 11:15:43;;;;;;;9.60;5.32;;;16.90;99.90;;;;;;4910058;29;20075;-63
2022/06/09 11:18:35;;;;;;;12.50;4.55;;;16.80;99.90;;;;;;4909616;29;20448;-63
2022/06/09 11:21:12;;;;;;;8.00;4.03;;;16.80;99.90;;;;;;4904518;29;20047;-63
2022/06/09 11:23:59;;;;;;;11.20;4.80;;;16.60;99.90;;;;;;4911304;29;20039;-63
2022/06/09 11:26:30;;;;;;;10.23;4.75;;;16.40;99.90;;;;;;4909880;29;20059;-63
2022/06/09 11:29:06;;;;;;;10.40;6.15;;;16.30;99.90;;;;;;4909630;29;20044;-64
2022/06/09 11:31:39;;;;;;;9.63;5.68;;;16.30;99.90;;;;;;4909628;29;20406;-63
2022/06/09 11:34:16;;;;;;;7.68;5.10;;;16.30;99.90;;;;;;4909590;29;20044;-63
2022/06/09 11:36:53;;;;;;;9.85;5.57;;;16.50;99.90;;;;;;4909040;29;20079;-63
2022/06/09 11:39:41;;;;;;;13.00;5.20;;;16.30;99.90;;;;;;4904002;29;20036;-63
2022/06/09 11:42:19;;;;;;;8.05;5.05;;;16.10;99.90;;;;;;4911480;29;20123;-64
2022/06/09 11:44:48;;;;;;;13.38;6.28;;;16.30;99.90;;;;;;4909491;29;20036;-63
2022/06/09 11:47:21;;;;;;;9.00;5.07;;;16.30;99.90;;;;;;4912587;29;20135;-63
2022/06/09 11:49:53;;;;;;;10.70;5.47;;;16.40;99.90;;;;;;4902121;29;20175;-64
2022/06/09 11:52:27;;;;;;;8.68;6.00;;;16.40;99.90;;;;;;4909523;29;20052;-63
2022/06/09 11:54:53;;;;;;;8.90;4.97;;;16.70;99.90;;;;;;4910104;29;20510;-63
2022/06/09 11:57:36;;;;;;;7.00;4.90;;;17.00;99.90;;;;;;4927482;29;20048;-63
2022/06/09 12:00:33;;;;;;;9.52;4.47;;;17.30;99.90;;;;;;4915280;29;20042;-63
2022/06/09 12:03:29;;;;;;;9.38;4.80;;;17.50;99.90;;;;;;4892918;29;20044;-65
2022/06/09 12:05:55;;;;;;;11.25;5.30;;;17.90;99.90;;;;;;4892651;29;20064;-65
2022/06/09 12:08:29;;;;;;;;;;;18.10;99.90;;;;;;4900661;29;20078;-60
2022/06/09 12:11:14;;;;;;;7.53;4.43;;;18.20;99.90;;;;;;4911145;29;19919;-63
2022/06/09 12:13:53;;;;;;;6.97;3.95;;;18.20;99.90;;;;;;4908649;29;20044;-63
2022/06/09 12:16:48;;;;;;;6.93;3.60;;;18.00;99.90;;;;;;4920061;29;20044;-63
2022/06/09 12:19:13;;;;;;;9.48;5.05;;;17.80;99.90;;;;;;4906275;29;20055;-64
2022/06/09 12:21:40;;;;;;;;;;;17.70;99.90;;;;;;4923399;29;20048;-65
2022/06/09 12:24:14;;;;;;;6.03;3.72;;;17.40;99.90;;;;;;4927321;29;19935;-64
2022/06/09 12:26:40;;;;;;;8.77;5.05;;;17.30;99.90;;;;;;4913627;29;20555;-64
2022/06/09 12:29:17;;;;;;;;;;;17.10;99.90;;;;;;4912982;29;20048;-65
2022/06/09 12:32:09;;;;;;;6.28;3.90;;;17.10;99.90;;;;;;4912343;29;20010;-64
2022/06/09 12:34:43;;;;;;;8.50;4.65;;;17.20;99.90;;;;;;4912139;29;20098;-65
2022/06/09 12:37:37;;;;;;;9.80;4.85;;;17.40;99.90;;;;;;4912744;29;20070;-64
2022/06/09 12:40:16;;;;;;;11.48;4.97;;;17.60;99.90;;;;;;4911523;29;20066;-64
2022/06/09 12:43:03;;;;;;;10.45;5.10;;;17.50;99.90;;;;;;4926968;29;20044;-63
2022/06/09 12:45:36;;;;;;;12.27;5.28;;;17.40;99.90;;;;;;4911806;29;20036;-63
2022/06/09 12:48:04;;;;;;;7.88;4.45;;;17.50;99.90;;;;;;4915072;29;20040;-63
2022/06/09 12:50:29;;;;;;;8.38;4.93;;;17.60;99.90;;;;;;4910632;29;20044;-64
2022/06/09 12:52:55;;;;;;;;;;;17.70;99.90;;;;;;4913599;29;20031;-64
2022/06/09 12:55:29;;;;;;;7.78;5.20;;;17.70;99.90;;;;;;4912744;29;19996;-64
2022/06/09 12:58:03;;;;;;;9.07;5.95;;;17.80;99.90;;;;;;4912657;29;20123;-64
2022/06/09 13:00:37;;;;;;;12.77;5.68;;;17.80;99.90;;;;;;4912331;29;20057;-65
2022/06/09 13:03:21;;;;;;;12.00;5.82;;;17.70;99.80;;;;;;4927046;29;21120;-63
2022/06/09 13:05:47;;;;;;;8.05;4.97;;;17.50;99.90;;;;;;4893586;29;20056;-63
2022/06/09 13:08:16;;;;;;;;;;;17.50;99.90;;;;;;4925095;29;20047;-63
2022/06/09 13:10:46;;;;;;;11.40;4.90;;;17.60;99.90;;;;;;4930681;29;20180;-63
2022/06/09 13:13:26;;;;;;;12.85;5.47;;;18.00;99.90;;;;;;4930852;29;20106;-61
2022/06/09 13:16:05;;;;;;;10.02;5.00;;;18.40;99.90;;;;;;4919884;29;20529;-63
2022/06/09 13:18:38;;;;;;;12.20;6.05;;;18.40;99.90;;;;;;4913198;29;20044;-64
2022/06/09 13:21:17;;;;;;;7.88;5.45;;;18.10;99.80;;;;;;4905342;29;20047;-64
2022/06/09 13:23:45;;;;;;;7.88;4.55;;;17.60;99.90;;;;;;4914721;29;20036;-63
2022/06/09 13:26:19;;;;;;;10.75;4.80;;;17.30;99.90;;;;;;4913286;29;20040;-64
2022/06/09 13:28:51;;;;;;;8.10;4.18;;;16.90;99.90;;;;;;4917865;29;20043;-63
2022/06/09 13:31:34;;;;;;;8.10;3.88;;;16.70;99.90;;;;;;4911574;29;20564;-65
2022/06/09 13:34:00;;;;;;;3.65;2.50;;;16.50;99.90;;;;;;4911685;29;20115;-63
2022/06/09 13:36:28;;;;;;;;;;;16.20;99.90;;;;;;4907101;29;20123;-64
2022/06/09 13:38:55;;;;;;;1.90;1.70;;;16.00;99.90;;;;;;4915534;29;20005;-64
2022/06/09 13:41:36;;;;;;;4.68;2.08;;;15.80;99.90;;;;;;4912267;29;20044;-63
2022/06/09 13:44:12;;;;;;;3.78;2.05;;;16.00;99.90;;;;;;4911877;29;20693;-64